createdAt,value
2018-03-02T00:00:05.474Z,23.63
2018-03-02T00:02:32.027Z,23.60
2018-03-02T00:04:58.602Z,23.64
2018-03-02T00:07:25.160Z,23.66
2018-03-02T00:09:51.777Z,23.64
2018-03-02T00:12:18.382Z,23.65
2018-03-02T00:14:44.948Z,23.69
2018-03-02T00:17:11.504Z,23.69
2018-03-02T00:19:38.097Z,23.65
2018-03-02T00:22:04.619Z,23.45
2018-03-02T00:24:31.216Z,23.30
2018-03-02T00:26:57.777Z,23.34
2018-03-02T00:29:24.372Z,23.41
2018-03-02T00:31:50.933Z,23.45
2018-03-02T00:34:17.493Z,23.48
2018-03-02T00:36:44.049Z,23.46
2018-03-02T00:39:10.603Z,23.51
2018-03-02T00:41:37.161Z,23.54
2018-03-02T00:44:03.726Z,23.54
2018-03-02T00:46:30.321Z,23.59
2018-03-02T00:48:56.872Z,23.57
2018-03-02T00:51:23.439Z,23.59
2018-03-02T00:53:50.000Z,23.59
2018-03-02T00:56:16.556Z,23.59
2018-03-02T00:58:43.166Z,23.59
2018-03-02T01:01:09.726Z,23.67
2018-03-02T01:03:36.288Z,23.66
2018-03-02T01:06:02.879Z,23.67
2018-03-02T01:08:29.527Z,23.69
2018-03-02T01:10:56.108Z,23.55
2018-03-02T01:13:22.663Z,23.69
2018-03-02T01:15:49.265Z,23.64
2018-03-02T01:18:15.861Z,23.69
2018-03-02T01:20:42.414Z,23.69
2018-03-02T01:23:08.990Z,23.55
2018-03-02T01:25:35.548Z,23.69
2018-03-02T01:28:02.110Z,23.75
2018-03-02T01:30:28.672Z,23.76
2018-03-02T01:32:55.277Z,23.65
2018-03-02T01:35:21.880Z,23.74
2018-03-02T01:37:48.433Z,23.58
2018-03-02T01:40:14.995Z,23.36
2018-03-02T01:42:41.608Z,23.42
2018-03-02T01:45:08.179Z,23.45
2018-03-02T01:47:34.740Z,23.41
2018-03-02T01:50:01.343Z,23.49
2018-03-02T01:52:27.906Z,23.48
2018-03-02T01:54:54.465Z,23.55
2018-03-02T01:57:21.021Z,23.58
2018-03-02T01:59:47.587Z,23.62
2018-03-02T02:02:14.175Z,23.62
2018-03-02T02:04:40.728Z,23.67
2018-03-02T02:07:07.337Z,23.55
2018-03-02T02:09:33.917Z,23.66
2018-03-02T02:12:00.474Z,23.42
2018-03-02T02:14:27.037Z,23.17
2018-03-02T02:16:53.595Z,22.87
2018-03-02T02:19:20.165Z,22.90
2018-03-02T02:21:46.735Z,23.04
2018-03-02T02:24:13.299Z,23.11
2018-03-02T02:26:39.854Z,23.24
2018-03-02T02:29:06.412Z,23.27
2018-03-02T02:31:32.971Z,23.23
2018-03-02T02:33:59.552Z,23.24
2018-03-02T02:36:26.116Z,23.39
2018-03-02T02:38:52.669Z,23.40
2018-03-02T02:41:19.304Z,23.40
2018-03-02T02:43:45.863Z,23.39
2018-03-02T02:46:12.481Z,23.48
2018-03-02T02:48:39.059Z,23.37
2018-03-02T02:51:05.615Z,23.51
2018-03-02T02:53:32.197Z,23.49
2018-03-02T02:56:01.405Z,23.48
2018-03-02T02:58:27.969Z,23.53
2018-03-02T03:00:54.524Z,23.44
2018-03-02T03:03:21.127Z,23.43
2018-03-02T03:05:47.684Z,23.55
2018-03-02T03:08:14.261Z,23.56
2018-03-02T03:10:40.822Z,23.52
2018-03-02T03:13:07.375Z,23.59
2018-03-02T03:15:33.964Z,23.53
2018-03-02T03:18:00.511Z,23.59
2018-03-02T03:20:27.095Z,23.61
2018-03-02T03:22:53.730Z,23.64
2018-03-02T03:25:20.354Z,23.55
2018-03-02T03:27:46.919Z,23.60
2018-03-02T03:30:13.471Z,23.50
2018-03-02T03:32:40.119Z,23.61
2018-03-02T03:35:06.700Z,23.63
2018-03-02T03:37:33.266Z,23.66
2018-03-02T03:39:59.828Z,23.62
2018-03-02T03:42:26.523Z,23.62
2018-03-02T03:44:53.096Z,23.68
2018-03-02T03:47:19.667Z,23.65
2018-03-02T03:49:46.226Z,23.66
2018-03-02T03:52:12.804Z,23.63
2018-03-02T03:54:39.408Z,23.59
2018-03-02T03:57:06.028Z,23.55
2018-03-02T03:59:32.588Z,23.37
2018-03-02T04:01:59.147Z,23.33
2018-03-02T04:04:25.733Z,23.39
2018-03-02T04:06:52.314Z,23.31
2018-03-02T04:09:18.878Z,23.38
2018-03-02T04:11:45.434Z,23.40
2018-03-02T04:14:11.992Z,23.37
2018-03-02T04:16:38.582Z,23.39
2018-03-02T04:19:05.144Z,23.45
2018-03-02T04:21:31.710Z,23.49
2018-03-02T04:23:58.269Z,23.36
2018-03-02T04:26:24.818Z,23.54
2018-03-02T04:28:51.388Z,23.59
2018-03-02T04:31:17.946Z,23.63
2018-03-02T04:33:44.498Z,23.55
2018-03-02T04:36:11.058Z,23.57
2018-03-02T04:38:37.617Z,23.69
2018-03-02T04:41:04.200Z,23.65
2018-03-02T04:43:30.799Z,23.51
2018-03-02T04:45:57.434Z,23.35
2018-03-02T04:48:23.991Z,23.23
2018-03-02T04:50:50.545Z,23.27
2018-03-02T04:53:17.145Z,23.33
2018-03-02T04:55:43.750Z,23.31
2018-03-02T04:58:10.311Z,23.36
2018-03-02T05:00:36.909Z,23.49
2018-03-02T05:03:03.521Z,23.47
2018-03-02T05:05:30.152Z,23.49
2018-03-02T05:07:56.719Z,23.53
2018-03-02T05:10:23.275Z,23.60
2018-03-02T05:12:49.958Z,23.79
2018-03-02T05:15:16.538Z,23.70
2018-03-02T05:17:43.149Z,23.69
2018-03-02T05:20:09.725Z,23.73
2018-03-02T05:22:36.347Z,23.84
2018-03-02T05:25:03.021Z,23.79
2018-03-02T05:27:29.619Z,23.91
2018-03-02T05:29:56.205Z,24.01
2018-03-02T05:32:22.825Z,23.91
2018-03-02T05:34:49.469Z,23.85
2018-03-02T05:37:16.117Z,23.60
2018-03-02T05:39:42.675Z,23.65
2018-03-02T05:42:09.273Z,23.77
2018-03-02T05:44:35.864Z,23.74
2018-03-02T05:47:02.476Z,23.57
2018-03-02T05:49:29.045Z,23.75
2018-03-02T05:51:55.656Z,23.65
2018-03-02T05:54:22.352Z,23.83
2018-03-02T05:56:48.973Z,23.88
2018-03-02T05:59:15.547Z,23.89
2018-03-02T06:01:42.104Z,23.93
2018-03-02T06:04:08.791Z,23.95
2018-03-02T06:06:35.335Z,23.83
2018-03-02T06:09:01.951Z,23.96
2018-03-02T06:11:28.570Z,23.85
2018-03-02T06:16:57.977Z,23.97
2018-03-02T06:19:24.584Z,24.05
2018-03-02T06:21:51.187Z,24.08
2018-03-02T06:24:17.744Z,24.12
2018-03-02T06:26:44.456Z,23.98
2018-03-02T06:29:11.043Z,24.12
2018-03-02T06:31:37.633Z,24.31
2018-03-02T06:34:04.334Z,24.37
2018-03-02T06:38:57.547Z,24.33
2018-03-02T06:41:24.690Z,24.28
2018-03-02T06:43:51.195Z,24.42
2018-03-02T06:46:17.762Z,24.45
2018-03-02T06:48:44.476Z,24.07
2018-03-02T06:51:11.082Z,24.05
2018-03-02T06:53:37.712Z,24.37
2018-03-02T06:56:04.350Z,24.05
2018-03-02T06:58:33.014Z,24.09
2018-03-02T07:00:59.585Z,24.17
2018-03-02T07:03:26.826Z,24.13
2018-03-02T07:05:53.361Z,24.45
2018-03-02T07:08:19.980Z,23.88
2018-03-02T07:10:46.546Z,24.13
2018-03-02T07:13:13.128Z,24.07
2018-03-02T07:15:39.769Z,23.90
2018-03-02T07:18:06.383Z,24.03
2018-03-02T07:20:32.984Z,24.03
2018-03-02T07:22:59.596Z,24.11
2018-03-02T07:25:26.247Z,24.31
2018-03-02T07:27:52.897Z,24.12
2018-03-02T07:30:19.491Z,23.95
2018-03-02T07:32:46.095Z,23.87
2018-03-02T07:35:12.691Z,23.85
2018-03-02T07:37:39.332Z,23.71
2018-03-02T07:39:18.016Z,21.82
2018-03-02T07:40:06.085Z,23.83
2018-03-02T07:41:44.390Z,21.81
2018-03-02T07:42:32.743Z,23.67
2018-03-02T07:44:10.388Z,21.79
2018-03-02T07:44:59.390Z,23.65
2018-03-02T07:46:36.522Z,21.77
2018-03-02T07:47:26.069Z,23.84
2018-03-02T07:49:02.808Z,21.91
2018-03-02T07:49:52.669Z,23.81
2018-03-02T07:51:28.864Z,21.93
2018-03-02T07:52:19.270Z,23.73
2018-03-02T07:53:55.141Z,21.93
2018-03-02T07:54:45.897Z,23.91
2018-03-02T07:57:12.543Z,23.79
2018-03-02T07:59:39.140Z,23.80
2018-03-02T08:02:05.871Z,23.78
2018-03-02T08:04:32.524Z,23.72
2018-03-02T08:06:59.173Z,23.87
2018-03-02T08:09:25.840Z,23.87
2018-03-02T08:11:52.428Z,23.85
2018-03-02T08:14:19.068Z,23.75
2018-03-02T08:16:45.694Z,23.72
2018-03-02T08:19:12.275Z,23.94
2018-03-02T08:21:39.047Z,23.72
2018-03-02T08:24:05.714Z,23.73
2018-03-02T08:26:32.325Z,23.76
2018-03-02T08:28:58.910Z,24.05
2018-03-02T08:31:25.494Z,24.01
2018-03-02T08:33:52.058Z,24.04
2018-03-02T08:36:18.709Z,23.84
2018-03-02T08:38:45.372Z,24.00
2018-03-02T08:41:11.952Z,23.81
2018-03-02T08:43:38.579Z,23.91
2018-03-02T08:46:05.420Z,23.86
2018-03-02T08:48:32.175Z,23.81
2018-03-02T08:50:58.776Z,23.86
2018-03-02T08:53:25.444Z,23.83
2018-03-02T08:55:52.111Z,23.91
2018-03-02T08:58:18.823Z,23.85
2018-03-02T09:00:45.394Z,23.98
2018-03-02T09:03:12.089Z,24.05
2018-03-02T09:05:38.847Z,24.24
2018-03-02T09:08:05.424Z,24.21
2018-03-02T09:10:32.044Z,23.94
2018-03-02T09:12:58.738Z,23.84
2018-03-02T09:15:25.426Z,23.88
2018-03-02T09:17:52.057Z,23.93
2018-03-02T09:20:18.698Z,24.20
2018-03-02T09:22:45.334Z,24.22
2018-03-02T09:25:12.018Z,24.38
2018-03-02T09:27:38.803Z,24.29
2018-03-02T09:30:05.494Z,24.29
2018-03-02T09:32:32.044Z,24.45
2018-03-02T09:34:58.666Z,24.59
2018-03-02T09:37:25.442Z,24.44
2018-03-02T09:39:52.348Z,24.21
2018-03-02T09:42:18.970Z,23.74
2018-03-02T09:44:45.631Z,23.93
2018-03-02T09:47:12.416Z,23.93
2018-03-02T09:49:41.531Z,23.87
2018-03-02T09:52:08.172Z,23.98
2018-03-02T09:54:37.244Z,23.93
2018-03-02T09:57:06.602Z,23.91
2018-03-02T09:59:34.222Z,23.76
2018-03-02T10:02:01.218Z,23.99
2018-03-02T10:04:29.099Z,23.86
2018-03-02T10:06:56.295Z,24.02
2018-03-02T10:09:23.059Z,23.91
2018-03-02T10:11:49.779Z,24.22
2018-03-02T10:14:16.408Z,24.16
2018-03-02T10:16:45.154Z,24.10
2018-03-02T10:19:11.958Z,24.08
2018-03-02T10:21:38.614Z,24.00
2018-03-02T10:24:05.177Z,24.09
2018-03-02T10:26:31.753Z,23.99
2018-03-02T10:28:58.509Z,23.91
2018-03-02T10:31:25.108Z,23.82
2018-03-02T10:33:51.697Z,23.82
2018-03-02T10:36:18.296Z,23.82
2018-03-02T10:38:44.878Z,23.81
2018-03-02T10:41:11.458Z,23.82
2018-03-02T10:43:38.097Z,24.07
2018-03-02T10:46:04.885Z,23.86
2018-03-02T10:48:31.515Z,23.77
2018-03-02T10:51:00.572Z,23.79
2018-03-02T10:53:27.248Z,23.84
2018-03-02T10:55:54.058Z,23.95
2018-03-02T10:58:20.650Z,24.00
2018-03-02T11:00:47.258Z,24.09
2018-03-02T11:03:13.981Z,23.76
2018-03-02T11:05:40.835Z,23.76
2018-03-02T11:08:07.531Z,24.09
2018-03-02T11:10:34.232Z,24.05
2018-03-02T11:13:00.965Z,23.82
2018-03-02T11:15:27.625Z,24.04
2018-03-02T11:17:54.250Z,23.97
2018-03-02T11:20:20.841Z,23.97
2018-03-02T11:22:47.454Z,24.05
2018-03-02T11:25:14.053Z,24.15
2018-03-02T11:27:40.686Z,24.21
2018-03-02T11:30:07.315Z,24.14
2018-03-02T11:32:33.904Z,24.58
2018-03-02T11:35:01.528Z,24.62
2018-03-02T11:37:28.147Z,24.40
2018-03-02T11:39:54.734Z,24.40
2018-03-02T11:42:21.324Z,24.43
2018-03-02T11:44:47.904Z,24.53
2018-03-02T11:47:14.582Z,24.44
2018-03-02T11:49:41.218Z,24.59
2018-03-02T11:52:07.762Z,24.59
2018-03-02T11:54:34.798Z,24.51
2018-03-02T11:57:01.369Z,24.63
2018-03-02T11:59:27.994Z,24.64
2018-03-02T12:01:54.592Z,24.57
2018-03-02T12:04:21.160Z,24.56
2018-03-02T12:06:47.753Z,24.57
2018-03-02T12:09:14.323Z,24.54
2018-03-02T12:11:40.964Z,24.49
2018-03-02T12:14:07.592Z,24.57
2018-03-02T12:16:34.191Z,24.58
2018-03-02T12:19:00.820Z,24.60
2018-03-02T12:21:27.547Z,24.60
2018-03-02T12:23:54.167Z,24.64
2018-03-02T12:26:20.822Z,24.69
2018-03-02T12:28:47.410Z,24.71
2018-03-02T12:31:14.117Z,24.77
2018-03-02T12:33:40.701Z,24.68
2018-03-02T12:36:07.257Z,24.71
2018-03-02T12:38:33.883Z,24.81
2018-03-02T12:41:00.440Z,24.71
2018-03-02T12:43:27.064Z,24.77
2018-03-02T12:45:53.728Z,24.84
2018-03-02T12:48:20.308Z,24.83
2018-03-02T12:50:46.917Z,24.82
2018-03-02T12:53:13.544Z,24.75
2018-03-02T12:55:40.267Z,25.02
2018-03-02T12:58:06.853Z,25.00
2018-03-02T13:00:33.457Z,24.80
2018-03-02T13:03:00.166Z,24.49
2018-03-02T13:05:26.705Z,24.22
2018-03-02T13:07:55.777Z,24.30
2018-03-02T13:10:22.490Z,24.01
2018-03-02T13:12:49.331Z,24.38
2018-03-02T13:15:15.915Z,23.97
2018-03-02T13:17:42.577Z,23.99
2018-03-02T13:20:09.205Z,23.69
2018-03-02T13:22:35.865Z,23.51
2018-03-02T13:25:02.637Z,23.38
2018-03-02T13:27:29.227Z,23.79
2018-03-02T13:30:04.782Z,23.94
2018-03-02T13:32:32.700Z,24.16
2018-03-02T13:34:58.095Z,24.34
2018-03-02T13:37:24.769Z,24.34
2018-03-02T13:39:51.359Z,24.34
2018-03-02T13:42:17.965Z,24.39
2018-03-02T13:44:44.660Z,24.52
2018-03-02T13:47:11.245Z,24.48
2018-03-02T13:49:37.837Z,24.46
2018-03-02T13:52:04.475Z,24.57
2018-03-02T13:54:31.074Z,24.58
2018-03-02T13:56:57.712Z,24.59
2018-03-02T13:59:34.429Z,24.76
2018-03-02T14:02:01.116Z,24.57
2018-03-02T14:04:27.729Z,24.52
2018-03-02T14:06:54.342Z,24.75
2018-03-02T14:09:21.018Z,24.49
2018-03-02T14:11:47.639Z,24.63
2018-03-02T14:14:14.439Z,24.31
2018-03-02T14:16:41.048Z,24.72
2018-03-02T14:19:07.674Z,24.53
2018-03-02T14:21:34.265Z,24.57
2018-03-02T14:24:00.831Z,24.59
2018-03-02T14:26:27.452Z,24.50
2018-03-02T14:28:54.049Z,24.46
2018-03-02T14:31:20.626Z,24.77
2018-03-02T14:33:47.264Z,24.67
2018-03-02T14:36:13.867Z,24.51
2018-03-02T14:38:40.469Z,24.84
2018-03-02T14:41:07.079Z,24.71
2018-03-02T14:43:33.660Z,24.98
2018-03-02T14:46:00.564Z,24.74
2018-03-02T14:48:27.124Z,24.64
2018-03-02T14:50:53.696Z,24.66
2018-03-02T14:53:20.544Z,24.71
2018-03-02T14:55:47.149Z,24.64
2018-03-02T14:58:13.775Z,24.69
2018-03-02T15:00:40.381Z,24.66
2018-03-02T15:03:06.959Z,24.59
2018-03-02T15:05:33.658Z,24.71
2018-03-02T15:08:00.323Z,24.74
2018-03-02T15:10:26.978Z,24.71
2018-03-02T15:12:53.588Z,24.68
2018-03-02T15:15:20.209Z,24.79
2018-03-02T15:17:46.873Z,24.66
2018-03-02T15:20:13.381Z,24.66
2018-03-02T15:22:40.090Z,24.63
2018-03-02T15:25:06.704Z,24.78
2018-03-02T15:27:33.266Z,24.79
2018-03-02T15:29:59.834Z,24.62
2018-03-02T15:32:26.454Z,24.57
2018-03-02T15:34:53.041Z,24.60
2018-03-02T15:37:19.611Z,24.58
2018-03-02T15:39:46.192Z,24.65
2018-03-02T15:42:12.817Z,24.57
2018-03-02T15:44:39.384Z,24.60
2018-03-02T15:47:05.982Z,24.57
2018-03-02T15:49:32.640Z,24.54
2018-03-02T15:51:59.144Z,24.52
2018-03-02T15:54:25.750Z,24.47
2018-03-02T15:56:52.313Z,24.51
2018-03-02T15:59:18.921Z,24.46
2018-03-02T16:01:45.510Z,24.46
2018-03-02T16:04:12.068Z,24.54
2018-03-02T16:06:38.685Z,24.46
2018-03-02T16:09:05.248Z,24.49
2018-03-02T16:11:31.863Z,24.44
2018-03-02T16:13:58.427Z,24.46
2018-03-02T16:16:25.042Z,24.43
2018-03-02T16:18:51.605Z,24.42
2018-03-02T16:21:18.228Z,24.41
2018-03-02T16:23:44.832Z,24.39
2018-03-02T16:26:11.435Z,24.46
2018-03-02T16:28:38.029Z,24.50
2018-03-02T16:31:04.589Z,24.46
2018-03-02T16:33:31.169Z,24.49
2018-03-02T16:35:57.727Z,24.51
2018-03-02T16:38:24.297Z,24.43
2018-03-02T16:40:50.885Z,24.31
2018-03-02T16:43:17.522Z,24.40
2018-03-02T16:45:44.080Z,24.27
2018-03-02T16:48:10.714Z,24.32
2018-03-02T16:50:37.379Z,24.29
2018-03-02T16:53:04.025Z,24.17
2018-03-02T16:55:30.646Z,24.27
2018-03-02T16:57:57.228Z,24.26
2018-03-02T17:00:23.896Z,24.24
2018-03-02T17:02:50.491Z,24.25
2018-03-02T17:05:17.068Z,24.21
2018-03-02T17:07:43.671Z,24.17
2018-03-02T17:10:10.290Z,24.21
2018-03-02T17:12:36.863Z,24.15
2018-03-02T17:15:03.500Z,24.11
2018-03-02T17:17:30.078Z,24.12
2018-03-02T17:19:56.637Z,24.18
2018-03-02T17:22:23.202Z,24.20
2018-03-02T17:24:49.775Z,24.11
2018-03-02T17:27:16.331Z,24.08
2018-03-02T17:29:42.930Z,24.19
2018-03-02T17:32:09.508Z,24.11
2018-03-02T17:34:36.112Z,24.11
2018-03-02T17:37:02.682Z,24.12
2018-03-02T17:39:29.243Z,24.07
2018-03-02T17:41:55.808Z,24.08
2018-03-02T17:44:22.367Z,24.08
2018-03-02T17:46:48.923Z,24.07
2018-03-02T17:49:15.531Z,24.00
2018-03-02T17:51:42.158Z,24.01
2018-03-02T17:54:08.762Z,24.03
2018-03-02T17:56:35.353Z,24.01
2018-03-02T17:59:01.950Z,23.99
2018-03-02T18:01:28.555Z,24.02
2018-03-02T18:03:55.112Z,24.00
2018-03-02T18:06:21.668Z,23.98
2018-03-02T18:08:48.223Z,23.94
2018-03-02T18:11:14.777Z,23.96
2018-03-02T18:13:41.336Z,23.94
2018-03-02T18:16:07.949Z,23.94
2018-03-02T18:18:34.503Z,23.93
2018-03-02T18:21:01.064Z,23.96
2018-03-02T18:23:27.676Z,23.94
2018-03-02T18:25:54.237Z,23.92
2018-03-02T18:28:20.805Z,23.95
2018-03-02T18:30:47.374Z,23.83
2018-03-02T18:33:13.934Z,23.93
2018-03-02T18:35:40.492Z,23.66
2018-03-02T18:38:07.056Z,23.52
2018-03-02T18:40:33.615Z,23.52
2018-03-02T18:43:00.218Z,23.50
2018-03-02T18:45:26.789Z,23.57
2018-03-02T18:47:53.388Z,23.65
2018-03-02T18:50:21.124Z,23.63
2018-03-02T18:52:47.682Z,23.65
2018-03-02T18:55:14.244Z,23.67
2018-03-02T18:57:40.803Z,23.71
2018-03-02T19:00:07.366Z,23.72
2018-03-02T19:02:33.955Z,23.65
2018-03-02T19:05:00.528Z,23.65
2018-03-02T19:07:27.159Z,23.66
2018-03-02T19:09:53.714Z,23.67
2018-03-02T19:12:20.277Z,23.68
2018-03-02T19:14:46.845Z,23.73
2018-03-02T19:17:13.427Z,23.74
2018-03-02T19:19:40.003Z,23.72
2018-03-02T19:22:06.637Z,23.70
2018-03-02T19:24:33.219Z,23.73
2018-03-02T19:26:59.825Z,23.71
2018-03-02T19:29:26.490Z,23.62
2018-03-02T19:31:53.154Z,23.70
2018-03-02T19:34:19.821Z,23.69
2018-03-02T19:36:46.464Z,23.73
2018-03-02T19:39:13.151Z,23.75
2018-03-02T19:41:39.892Z,23.70
2018-03-02T19:44:06.533Z,23.72
2018-03-02T19:46:33.156Z,23.72
2018-03-02T19:48:59.798Z,23.71
2018-03-02T19:51:26.413Z,23.70
2018-03-02T19:53:53.103Z,23.70
2018-03-02T19:56:19.715Z,23.71
2018-03-02T19:58:46.380Z,23.71
2018-03-02T20:01:12.997Z,23.68
2018-03-02T20:03:39.667Z,23.67
2018-03-02T20:06:06.311Z,23.67
2018-03-02T20:08:32.897Z,23.69
2018-03-02T20:10:59.543Z,23.68
2018-03-02T20:13:26.137Z,23.66
2018-03-02T20:15:52.764Z,23.69
2018-03-02T20:18:19.353Z,23.59
2018-03-02T20:20:46.012Z,23.66
2018-03-02T20:23:12.619Z,23.67
2018-03-02T20:25:39.175Z,23.68
2018-03-02T20:28:05.735Z,23.67
2018-03-02T20:30:32.341Z,23.63
2018-03-02T20:32:58.963Z,23.60
2018-03-02T20:35:25.593Z,23.66
2018-03-02T20:37:52.162Z,23.64
2018-03-02T20:40:18.764Z,23.62
2018-03-02T20:42:45.375Z,23.61
2018-03-02T20:45:11.954Z,23.62
2018-03-02T20:47:38.620Z,23.61
2018-03-02T20:50:05.179Z,23.46
2018-03-02T20:52:31.778Z,23.58
2018-03-02T20:54:58.357Z,23.55
2018-03-02T20:57:24.962Z,23.62
2018-03-02T20:59:51.528Z,23.62
2018-03-02T21:02:18.092Z,23.60
2018-03-02T21:04:44.693Z,23.61
2018-03-02T21:07:11.303Z,23.60
2018-03-02T21:09:37.916Z,23.57
2018-03-02T21:12:04.491Z,23.58
2018-03-02T21:14:31.046Z,23.57
2018-03-02T21:16:57.661Z,23.52
2018-03-02T21:19:24.240Z,23.59
2018-03-02T21:21:50.801Z,23.57
2018-03-02T21:24:17.403Z,23.58
2018-03-02T21:26:44.008Z,23.59
2018-03-02T21:29:10.616Z,23.58
2018-03-02T21:31:37.243Z,23.37
2018-03-02T21:34:03.806Z,23.51
2018-03-02T21:36:30.403Z,23.53
2018-03-02T21:38:57.031Z,23.53
2018-03-02T21:41:23.646Z,23.53
2018-03-02T21:43:50.256Z,23.50
2018-03-02T21:46:16.861Z,23.56
2018-03-02T21:48:43.379Z,23.54
2018-03-02T21:51:09.964Z,23.54
2018-03-02T21:53:36.592Z,23.51
2018-03-02T21:56:03.187Z,23.56
2018-03-02T21:58:29.780Z,23.39
2018-03-02T22:00:56.352Z,23.53
2018-03-02T22:03:22.984Z,23.41
2018-03-02T22:05:49.541Z,23.49
2018-03-02T22:08:16.093Z,23.52
2018-03-02T22:10:42.662Z,23.46
2018-03-02T22:13:09.223Z,23.39
2018-03-02T22:15:35.824Z,23.53
2018-03-02T22:18:02.410Z,23.54
2018-03-02T22:20:28.974Z,23.49
2018-03-02T22:22:55.539Z,23.50
2018-03-02T22:25:22.122Z,23.53
2018-03-02T22:27:48.734Z,23.51
2018-03-02T22:30:15.306Z,23.50
2018-03-02T22:32:41.967Z,23.52
2018-03-02T22:35:08.545Z,23.53
2018-03-02T22:37:35.116Z,23.51
2018-03-02T22:40:01.727Z,23.51
2018-03-02T22:42:28.338Z,23.51
2018-03-02T22:44:54.913Z,23.49
2018-03-02T22:47:21.481Z,23.45
2018-03-02T22:49:48.082Z,23.52
2018-03-02T22:52:14.650Z,23.52
2018-03-02T22:54:41.205Z,23.46
2018-03-02T22:57:07.802Z,23.52
2018-03-02T22:59:34.407Z,23.50
2018-03-02T23:02:00.993Z,23.49
2018-03-02T23:04:27.569Z,23.50
2018-03-02T23:06:54.241Z,23.51
2018-03-02T23:09:20.805Z,23.50
2018-03-02T23:11:47.380Z,23.53
2018-03-02T23:14:13.973Z,23.53
2018-03-02T23:16:40.530Z,23.47
2018-03-02T23:19:07.149Z,23.53
2018-03-02T23:21:33.719Z,23.51
2018-03-02T23:24:00.301Z,23.51
2018-03-02T23:26:26.859Z,23.53
2018-03-02T23:28:53.466Z,23.50
2018-03-02T23:31:20.036Z,23.50
2018-03-02T23:33:46.705Z,23.46
2018-03-02T23:36:13.295Z,23.52
2018-03-02T23:38:39.933Z,23.48
2018-03-02T23:41:06.572Z,23.49
2018-03-02T23:43:33.135Z,23.52
2018-03-02T23:45:59.752Z,23.50
2018-03-02T23:48:26.318Z,23.50
2018-03-02T23:50:52.885Z,23.49
2018-03-02T23:53:19.464Z,23.51
2018-03-02T23:55:46.078Z,23.52
2018-03-02T23:58:12.632Z,23.51
